sensor_id;sensor_type;location;lat;lon;timestamp;P1;durP1;ratioP1;P2;durP2;ratioP2
18340;SDS011;9296;48.084;16.352;2024-02-26T00:00:33;8.23;;;3.30;;
18340;SDS011;9296;48.084;16.352;2024-02-26T00:03:01;5.53;;;2.92;;
18340;SDS011;9296;48.084;16.352;2024-02-26T00:05:29;4.38;;;2.45;;
18340;SDS011;9296;48.084;16.352;2024-02-26T00:10:43;4.28;;;2.65;;
18340;SDS011;9296;48.084;16.352;2024-02-26T00:13:10;6.65;;;2.80;;
18340;SDS011;9296;48.084;16.352;2024-02-26T00:15:38;6.45;;;2.60;;
18340;SDS011;9296;48.084;16.352;2024-02-26T00:18:06;6.38;;;2.90;;
18340;SDS011;9296;48.084;16.352;2024-02-26T00:20:37;6.88;;;2.80;;
18340;SDS011;9296;48.084;16.352;2024-02-26T00:23:08;8.02;;;3.35;;
18340;SDS011;9296;48.084;16.352;2024-02-26T00:25:36;6.35;;;3.08;;
18340;SDS011;9296;48.084;16.352;2024-02-26T00:28:04;6.90;;;3.50;;
18340;SDS011;9296;48.084;16.352;2024-02-26T00:30:38;8.05;;;3.28;;
18340;SDS011;9296;48.084;16.352;2024-02-26T00:33:06;5.45;;;3.17;;
18340;SDS011;9296;48.084;16.352;2024-02-26T00:35:34;4.72;;;2.70;;
18340;SDS011;9296;48.084;16.352;2024-02-26T00:38:03;7.63;;;3.20;;
18340;SDS011;9296;48.084;16.352;2024-02-26T00:40:30;6.07;;;3.42;;
18340;SDS011;9296;48.084;16.352;2024-02-26T00:42:59;8.85;;;3.28;;
18340;SDS011;9296;48.084;16.352;2024-02-26T00:45:27;6.07;;;3.45;;
18340;SDS011;9296;48.084;16.352;2024-02-26T00:47:54;6.35;;;3.05;;
18340;SDS011;9296;48.084;16.352;2024-02-26T00:50:22;6.35;;;3.08;;
18340;SDS011;9296;48.084;16.352;2024-02-26T00:55:55;5.13;;;2.75;;
18340;SDS011;9296;48.084;16.352;2024-02-26T00:58:36;4.57;;;3.10;;
18340;SDS011;9296;48.084;16.352;2024-02-26T01:01:19;5.72;;;2.95;;
18340;SDS011;9296;48.084;16.352;2024-02-26T01:04:04;6.68;;;2.88;;
18340;SDS011;9296;48.084;16.352;2024-02-26T01:06:50;6.68;;;3.47;;
18340;SDS011;9296;48.084;16.352;2024-02-26T01:09:46;6.15;;;3.22;;
18340;SDS011;9296;48.084;16.352;2024-02-26T01:12:21;5.57;;;2.90;;
18340;SDS011;9296;48.084;16.352;2024-02-26T01:15:05;6.85;;;3.15;;
18340;SDS011;9296;48.084;16.352;2024-02-26T01:24:10;6.82;;;3.33;;
18340;SDS011;9296;48.084;16.352;2024-02-26T01:30:16;6.50;;;3.67;;
18340;SDS011;9296;48.084;16.352;2024-02-26T01:33:00;6.18;;;3.20;;
18340;SDS011;9296;48.084;16.352;2024-02-26T01:35:30;9.25;;;3.17;;
18340;SDS011;9296;48.084;16.352;2024-02-26T01:46:56;6.82;;;3.38;;
18340;SDS011;9296;48.084;16.352;2024-02-26T01:56:05;6.35;;;3.80;;
18340;SDS011;9296;48.084;16.352;2024-02-26T01:58:47;10.93;;;3.40;;
18340;SDS011;9296;48.084;16.352;2024-02-26T02:01:20;5.88;;;3.00;;
18340;SDS011;9296;48.084;16.352;2024-02-26T02:13:48;4.40;;;2.53;;
18340;SDS011;9296;48.084;16.352;2024-02-26T02:19:28;8.45;;;2.78;;
18340;SDS011;9296;48.084;16.352;2024-02-26T02:31:36;5.90;;;2.70;;
18340;SDS011;9296;48.084;16.352;2024-02-26T02:34:13;7.07;;;2.60;;
18340;SDS011;9296;48.084;16.352;2024-02-26T02:37:05;8.15;;;2.67;;
18340;SDS011;9296;48.084;16.352;2024-02-26T02:40:21;4.95;;;2.90;;
18340;SDS011;9296;48.084;16.352;2024-02-26T03:12:53;5.68;;;2.50;;
18340;SDS011;9296;48.084;16.352;2024-02-26T03:15:57;7.05;;;2.60;;
18340;SDS011;9296;48.084;16.352;2024-02-26T03:18:43;4.68;;;2.30;;
18340;SDS011;9296;48.084;16.352;2024-02-26T03:24:19;5.47;;;2.72;;
18340;SDS011;9296;48.084;16.352;2024-02-26T03:26:48;5.50;;;2.53;;
18340;SDS011;9296;48.084;16.352;2024-02-26T03:32:14;5.68;;;2.80;;
18340;SDS011;9296;48.084;16.352;2024-02-26T03:34:47;6.85;;;2.80;;
18340;SDS011;9296;48.084;16.352;2024-02-26T03:37:29;5.07;;;2.97;;
18340;SDS011;9296;48.084;16.352;2024-02-26T03:40:11;4.80;;;2.72;;
18340;SDS011;9296;48.084;16.352;2024-02-26T03:42:41;6.32;;;2.90;;
18340;SDS011;9296;48.084;16.352;2024-02-26T03:45:25;6.07;;;2.95;;
18340;SDS011;9296;48.084;16.352;2024-02-26T03:48:00;7.32;;;3.00;;
18340;SDS011;9296;48.084;16.352;2024-02-26T03:50:32;7.40;;;2.85;;
18340;SDS011;9296;48.084;16.352;2024-02-26T03:56:11;8.00;;;3.17;;
18340;SDS011;9296;48.084;16.352;2024-02-26T03:58:39;6.40;;;2.58;;
18340;SDS011;9296;48.084;16.352;2024-02-26T04:01:09;5.95;;;2.63;;
18340;SDS011;9296;48.084;16.352;2024-02-26T04:03:56;5.78;;;2.65;;
18340;SDS011;9296;48.084;16.352;2024-02-26T04:06:33;5.43;;;2.70;;
18340;SDS011;9296;48.084;16.352;2024-02-26T04:09:01;7.18;;;2.78;;
18340;SDS011;9296;48.084;16.352;2024-02-26T04:11:42;5.22;;;2.63;;
18340;SDS011;9296;48.084;16.352;2024-02-26T04:14:17;4.63;;;2.92;;
18340;SDS011;9296;48.084;16.352;2024-02-26T04:16:44;6.43;;;2.60;;
18340;SDS011;9296;48.084;16.352;2024-02-26T04:19:27;6.35;;;2.83;;
18340;SDS011;9296;48.084;16.352;2024-02-26T04:21:54;6.55;;;2.95;;
18340;SDS011;9296;48.084;16.352;2024-02-26T04:26:53;5.50;;;2.85;;
18340;SDS011;9296;48.084;16.352;2024-02-26T04:29:28;7.35;;;2.75;;
18340;SDS011;9296;48.084;16.352;2024-02-26T04:31:56;6.05;;;2.80;;
18340;SDS011;9296;48.084;16.352;2024-02-26T04:34:33;5.72;;;2.72;;
18340;SDS011;9296;48.084;16.352;2024-02-26T04:37:38;8.73;;;3.30;;
18340;SDS011;9296;48.084;16.352;2024-02-26T04:43:15;7.13;;;3.38;;
18340;SDS011;9296;48.084;16.352;2024-02-26T04:45:45;5.45;;;2.72;;
18340;SDS011;9296;48.084;16.352;2024-02-26T04:48:23;8.30;;;3.00;;
18340;SDS011;9296;48.084;16.352;2024-02-26T04:51:06;5.35;;;2.85;;
18340;SDS011;9296;48.084;16.352;2024-02-26T04:56:31;5.55;;;2.90;;
18340;SDS011;9296;48.084;16.352;2024-02-26T04:59:19;6.50;;;3.10;;
18340;SDS011;9296;48.084;16.352;2024-02-26T05:04:53;6.03;;;3.30;;
18340;SDS011;9296;48.084;16.352;2024-02-26T05:07:24;5.85;;;3.15;;
18340;SDS011;9296;48.084;16.352;2024-02-26T05:10:19;6.53;;;3.10;;
18340;SDS011;9296;48.084;16.352;2024-02-26T05:13:02;5.95;;;3.40;;
18340;SDS011;9296;48.084;16.352;2024-02-26T05:21:44;6.13;;;3.00;;
18340;SDS011;9296;48.084;16.352;2024-02-26T05:33:08;6.82;;;3.00;;
18340;SDS011;9296;48.084;16.352;2024-02-26T05:35:50;8.35;;;3.47;;
18340;SDS011;9296;48.084;16.352;2024-02-26T05:41:44;7.43;;;3.10;;
18340;SDS011;9296;48.084;16.352;2024-02-26T05:44:46;7.22;;;3.50;;
18340;SDS011;9296;48.084;16.352;2024-02-26T06:20:21;5.43;;;3.78;;
18340;SDS011;9296;48.084;16.352;2024-02-26T06:22:53;9.68;;;4.05;;
18340;SDS011;9296;48.084;16.352;2024-02-26T06:28:45;6.70;;;3.88;;
18340;SDS011;9296;48.084;16.352;2024-02-26T06:31:17;9.60;;;4.10;;
18340;SDS011;9296;48.084;16.352;2024-02-26T06:33:45;7.22;;;4.05;;
18340;SDS011;9296;48.084;16.352;2024-02-26T06:36:15;6.13;;;3.97;;
18340;SDS011;9296;48.084;16.352;2024-02-26T06:38:42;6.65;;;4.50;;
18340;SDS011;9296;48.084;16.352;2024-02-26T06:41:09;5.90;;;4.10;;
18340;SDS011;9296;48.084;16.352;2024-02-26T06:43:45;5.35;;;3.88;;
18340;SDS011;9296;48.084;16.352;2024-02-26T06:46:12;6.45;;;3.90;;
18340;SDS011;9296;48.084;16.352;2024-02-26T06:48:51;10.27;;;4.20;;
18340;SDS011;9296;48.084;16.352;2024-02-26T06:51:22;6.47;;;4.07;;
18340;SDS011;9296;48.084;16.352;2024-02-26T06:56:54;8.35;;;4.80;;
18340;SDS011;9296;48.084;16.352;2024-02-26T06:59:22;7.40;;;4.22;;
18340;SDS011;9296;48.084;16.352;2024-02-26T07:01:50;7.22;;;4.10;;
18340;SDS011;9296;48.084;16.352;2024-02-26T07:09:26;5.55;;;3.75;;
18340;SDS011;9296;48.084;16.352;2024-02-26T07:11:54;5.53;;;4.28;;
18340;SDS011;9296;48.084;16.352;2024-02-26T07:14:24;6.22;;;4.05;;
18340;SDS011;9296;48.084;16.352;2024-02-26T07:17:02;6.25;;;4.00;;
18340;SDS011;9296;48.084;16.352;2024-02-26T07:31:59;5.40;;;3.70;;
18340;SDS011;9296;48.084;16.352;2024-02-26T07:34:26;5.88;;;3.80;;
18340;SDS011;9296;48.084;16.352;2024-02-26T07:37:08;4.97;;;4.03;;
18340;SDS011;9296;48.084;16.352;2024-02-26T07:39:50;4.82;;;3.70;;
18340;SDS011;9296;48.084;16.352;2024-02-26T07:42:20;5.75;;;3.75;;
18340;SDS011;9296;48.084;16.352;2024-02-26T07:44:49;6.30;;;3.92;;
18340;SDS011;9296;48.084;16.352;2024-02-26T07:47:18;5.63;;;3.72;;
18340;SDS011;9296;48.084;16.352;2024-02-26T07:49:48;5.57;;;3.83;;
18340;SDS011;9296;48.084;16.352;2024-02-26T07:52:15;4.93;;;3.60;;
18340;SDS011;9296;48.084;16.352;2024-02-26T07:54:42;8.23;;;4.30;;
18340;SDS011;9296;48.084;16.352;2024-02-26T07:57:10;4.10;;;3.70;;
18340;SDS011;9296;48.084;16.352;2024-02-26T07:59:40;6.55;;;3.95;;
18340;SDS011;9296;48.084;16.352;2024-02-26T08:02:07;6.93;;;3.92;;
18340;SDS011;9296;48.084;16.352;2024-02-26T08:04:36;6.78;;;4.10;;
18340;SDS011;9296;48.084;16.352;2024-02-26T08:07:07;5.80;;;4.18;;
18340;SDS011;9296;48.084;16.352;2024-02-26T08:09:34;6.25;;;3.85;;
18340;SDS011;9296;48.084;16.352;2024-02-26T08:18:09;5.78;;;4.95;;
18340;SDS011;9296;48.084;16.352;2024-02-26T09:03:29;5.45;;;2.95;;
18340;SDS011;9296;48.084;16.352;2024-02-26T09:05:57;5.28;;;2.80;;
18340;SDS011;9296;48.084;16.352;2024-02-26T09:08:24;4.95;;;2.70;;
18340;SDS011;9296;48.084;16.352;2024-02-26T09:10:52;4.28;;;2.50;;
18340;SDS011;9296;48.084;16.352;2024-02-26T09:13:22;5.00;;;2.60;;
18340;SDS011;9296;48.084;16.352;2024-02-26T09:15:49;6.38;;;2.47;;
18340;SDS011;9296;48.084;16.352;2024-02-26T09:18:17;3.58;;;2.38;;
18340;SDS011;9296;48.084;16.352;2024-02-26T09:20:56;2.78;;;1.98;;
18340;SDS011;9296;48.084;16.352;2024-02-26T09:23:24;3.88;;;2.28;;
18340;SDS011;9296;48.084;16.352;2024-02-26T09:28:55;3.10;;;1.90;;
18340;SDS011;9296;48.084;16.352;2024-02-26T09:31:36;3.17;;;2.00;;
18340;SDS011;9296;48.084;16.352;2024-02-26T09:36:57;5.68;;;1.67;;
18340;SDS011;9296;48.084;16.352;2024-02-26T09:39:24;3.67;;;1.70;;
18340;SDS011;9296;48.084;16.352;2024-02-26T09:45:00;3.22;;;1.70;;
18340;SDS011;9296;48.084;16.352;2024-02-26T09:47:39;3.42;;;1.50;;
18340;SDS011;9296;48.084;16.352;2024-02-26T09:50:19;3.13;;;1.67;;
18340;SDS011;9296;48.084;16.352;2024-02-26T09:58:51;2.35;;;1.70;;
18340;SDS011;9296;48.084;16.352;2024-02-26T10:01:59;4.40;;;1.70;;
18340;SDS011;9296;48.084;16.352;2024-02-26T10:07:58;2.67;;;1.50;;
18340;SDS011;9296;48.084;16.352;2024-02-26T10:10:51;5.13;;;1.75;;
18340;SDS011;9296;48.084;16.352;2024-02-26T10:13:25;4.68;;;1.70;;
18340;SDS011;9296;48.084;16.352;2024-02-26T10:22:13;2.70;;;2.00;;
18340;SDS011;9296;48.084;16.352;2024-02-26T10:27:35;2.90;;;1.70;;
18340;SDS011;9296;48.084;16.352;2024-02-26T10:32:57;2.00;;;1.60;;
18340;SDS011;9296;48.084;16.352;2024-02-26T10:51:43;2.65;;;1.20;;
18340;SDS011;9296;48.084;16.352;2024-02-26T12:14:32;4.10;;;1.10;;
18340;SDS011;9296;48.084;16.352;2024-02-26T12:17:31;2.65;;;1.00;;
18340;SDS011;9296;48.084;16.352;2024-02-26T12:20:18;2.10;;;1.23;;
18340;SDS011;9296;48.084;16.352;2024-02-26T12:22:58;3.72;;;1.17;;
18340;SDS011;9296;48.084;16.352;2024-02-26T12:25:48;2.00;;;1.15;;
18340;SDS011;9296;48.084;16.352;2024-02-26T12:28:46;1.67;;;1.02;;
18340;SDS011;9296;48.084;16.352;2024-02-26T12:31:31;1.83;;;1.00;;
18340;SDS011;9296;48.084;16.352;2024-02-26T12:42:46;2.13;;;0.95;;
18340;SDS011;9296;48.084;16.352;2024-02-26T12:47:56;2.38;;;1.25;;
18340;SDS011;9296;48.084;16.352;2024-02-26T12:50:26;1.75;;;1.00;;
18340;SDS011;9296;48.084;16.352;2024-02-26T12:52:54;1.75;;;1.00;;
18340;SDS011;9296;48.084;16.352;2024-02-26T12:55:42;1.77;;;1.10;;
18340;SDS011;9296;48.084;16.352;2024-02-26T12:58:09;4.82;;;1.20;;
18340;SDS011;9296;48.084;16.352;2024-02-26T13:00:37;1.80;;;1.15;;
18340;SDS011;9296;48.084;16.352;2024-02-26T13:05:56;2.10;;;1.00;;
18340;SDS011;9296;48.084;16.352;2024-02-26T13:08:24;2.33;;;1.10;;
18340;SDS011;9296;48.084;16.352;2024-02-26T13:10:54;3.97;;;1.10;;
18340;SDS011;9296;48.084;16.352;2024-02-26T13:13:24;1.95;;;1.00;;
18340;SDS011;9296;48.084;16.352;2024-02-26T13:16:02;3.40;;;1.02;;
18340;SDS011;9296;48.084;16.352;2024-02-26T13:18:33;2.72;;;1.10;;
18340;SDS011;9296;48.084;16.352;2024-02-26T13:21:10;1.80;;;0.90;;
18340;SDS011;9296;48.084;16.352;2024-02-26T13:23:40;3.97;;;1.00;;
18340;SDS011;9296;48.084;16.352;2024-02-26T13:26:18;1.73;;;1.08;;
18340;SDS011;9296;48.084;16.352;2024-02-26T13:29:00;3.17;;;1.20;;
18340;SDS011;9296;48.084;16.352;2024-02-26T13:31:28;1.88;;;1.05;;
18340;SDS011;9296;48.084;16.352;2024-02-26T13:33:56;2.83;;;1.20;;
18340;SDS011;9296;48.084;16.352;2024-02-26T13:36:28;2.10;;;1.05;;
18340;SDS011;9296;48.084;16.352;2024-02-26T13:39:02;2.25;;;1.00;;
18340;SDS011;9296;48.084;16.352;2024-02-26T13:41:31;1.75;;;0.85;;
18340;SDS011;9296;48.084;16.352;2024-02-26T13:44:03;2.13;;;1.10;;
18340;SDS011;9296;48.084;16.352;2024-02-26T13:46:33;2.55;;;1.00;;
18340;SDS011;9296;48.084;16.352;2024-02-26T13:49:03;2.03;;;1.00;;
18340;SDS011;9296;48.084;16.352;2024-02-26T13:51:33;2.45;;;1.10;;
18340;SDS011;9296;48.084;16.352;2024-02-26T13:54:05;2.33;;;0.98;;
18340;SDS011;9296;48.084;16.352;2024-02-26T13:56:34;3.88;;;1.10;;
18340;SDS011;9296;48.084;16.352;2024-02-26T13:59:05;2.17;;;0.95;;
18340;SDS011;9296;48.084;16.352;2024-02-26T14:01:34;3.13;;;1.20;;
18340;SDS011;9296;48.084;16.352;2024-02-26T14:04:05;2.75;;;1.00;;
18340;SDS011;9296;48.084;16.352;2024-02-26T14:06:37;3.60;;;1.33;;
18340;SDS011;9296;48.084;16.352;2024-02-26T14:09:07;1.20;;;0.90;;
18340;SDS011;9296;48.084;16.352;2024-02-26T14:11:37;2.65;;;1.25;;
18340;SDS011;9296;48.084;16.352;2024-02-26T14:14:07;2.28;;;1.23;;
18340;SDS011;9296;48.084;16.352;2024-02-26T14:16:35;2.63;;;1.35;;
18340;SDS011;9296;48.084;16.352;2024-02-26T14:19:06;1.50;;;1.05;;
18340;SDS011;9296;48.084;16.352;2024-02-26T14:21:45;1.60;;;0.90;;
18340;SDS011;9296;48.084;16.352;2024-02-26T14:24:31;1.77;;;1.00;;
18340;SDS011;9296;48.084;16.352;2024-02-26T14:27:17;1.90;;;1.02;;
18340;SDS011;9296;48.084;16.352;2024-02-26T14:29:48;4.05;;;1.20;;
18340;SDS011;9296;48.084;16.352;2024-02-26T14:32:19;1.67;;;1.00;;
18340;SDS011;9296;48.084;16.352;2024-02-26T14:34:48;1.95;;;1.10;;
18340;SDS011;9296;48.084;16.352;2024-02-26T14:37:18;2.47;;;1.10;;
18340;SDS011;9296;48.084;16.352;2024-02-26T14:39:47;3.03;;;1.33;;
18340;SDS011;9296;48.084;16.352;2024-02-26T14:45:24;3.15;;;1.63;;
18340;SDS011;9296;48.084;16.352;2024-02-26T15:13:56;1.92;;;1.42;;
18340;SDS011;9296;48.084;16.352;2024-02-26T15:16:29;4.72;;;1.00;;
18340;SDS011;9296;48.084;16.352;2024-02-26T15:18:57;2.13;;;0.98;;
18340;SDS011;9296;48.084;16.352;2024-02-26T15:21:24;3.92;;;1.05;;
18340;SDS011;9296;48.084;16.352;2024-02-26T15:23:51;3.00;;;1.25;;
18340;SDS011;9296;48.084;16.352;2024-02-26T15:26:37;3.63;;;1.23;;
18340;SDS011;9296;48.084;16.352;2024-02-26T15:29:06;1.98;;;1.40;;
18340;SDS011;9296;48.084;16.352;2024-02-26T15:31:34;4.13;;;1.30;;
18340;SDS011;9296;48.084;16.352;2024-02-26T15:34:02;3.38;;;1.35;;
18340;SDS011;9296;48.084;16.352;2024-02-26T15:36:33;3.63;;;1.30;;
18340;SDS011;9296;48.084;16.352;2024-02-26T15:39:00;4.40;;;1.23;;
18340;SDS011;9296;48.084;16.352;2024-02-26T15:41:30;2.70;;;1.08;;
18340;SDS011;9296;48.084;16.352;2024-02-26T15:43:58;2.47;;;1.00;;
18340;SDS011;9296;48.084;16.352;2024-02-26T15:46:33;4.72;;;1.50;;
18340;SDS011;9296;48.084;16.352;2024-02-26T15:49:15;3.88;;;1.98;;
18340;SDS011;9296;48.084;16.352;2024-02-26T15:51:43;2.58;;;1.52;;
18340;SDS011;9296;48.084;16.352;2024-02-26T15:54:12;2.00;;;1.13;;
18340;SDS011;9296;48.084;16.352;2024-02-26T15:56:41;3.50;;;1.25;;
18340;SDS011;9296;48.084;16.352;2024-02-26T15:59:08;2.45;;;1.02;;
18340;SDS011;9296;48.084;16.352;2024-02-26T16:01:40;2.92;;;1.70;;
18340;SDS011;9296;48.084;16.352;2024-02-26T16:04:08;3.03;;;1.23;;
18340;SDS011;9296;48.084;16.352;2024-02-26T16:06:37;1.73;;;1.08;;
18340;SDS011;9296;48.084;16.352;2024-02-26T16:09:06;1.73;;;1.10;;
18340;SDS011;9296;48.084;16.352;2024-02-26T16:11:34;3.72;;;1.40;;
18340;SDS011;9296;48.084;16.352;2024-02-26T16:14:02;2.55;;;1.50;;
18340;SDS011;9296;48.084;16.352;2024-02-26T16:16:33;3.97;;;1.30;;
18340;SDS011;9296;48.084;16.352;2024-02-26T16:19:06;4.28;;;1.60;;
18340;SDS011;9296;48.084;16.352;2024-02-26T16:21:35;2.95;;;1.58;;
18340;SDS011;9296;48.084;16.352;2024-02-26T16:24:03;1.70;;;1.30;;
18340;SDS011;9296;48.084;16.352;2024-02-26T16:26:30;2.42;;;1.55;;
18340;SDS011;9296;48.084;16.352;2024-02-26T16:28:58;2.13;;;1.30;;
18340;SDS011;9296;48.084;16.352;2024-02-26T16:31:25;2.40;;;1.20;;
18340;SDS011;9296;48.084;16.352;2024-02-26T16:33:54;1.83;;;1.15;;
18340;SDS011;9296;48.084;16.352;2024-02-26T16:36:25;3.88;;;1.30;;
18340;SDS011;9296;48.084;16.352;2024-02-26T16:38:52;2.22;;;1.30;;
18340;SDS011;9296;48.084;16.352;2024-02-26T16:44:27;2.72;;;1.30;;
18340;SDS011;9296;48.084;16.352;2024-02-26T16:47:09;2.95;;;1.48;;
18340;SDS011;9296;48.084;16.352;2024-02-26T16:52:07;4.55;;;1.50;;
18340;SDS011;9296;48.084;16.352;2024-02-26T16:54:43;3.00;;;1.85;;
18340;SDS011;9296;48.084;16.352;2024-02-26T16:59:36;3.10;;;1.70;;
18340;SDS011;9296;48.084;16.352;2024-02-26T17:02:09;3.00;;;1.80;;
18340;SDS011;9296;48.084;16.352;2024-02-26T17:04:53;3.92;;;1.80;;
18340;SDS011;9296;48.084;16.352;2024-02-26T17:07:22;4.65;;;1.90;;
18340;SDS011;9296;48.084;16.352;2024-02-26T17:13:11;3.65;;;1.85;;
18340;SDS011;9296;48.084;16.352;2024-02-26T17:16:00;2.83;;;1.63;;
18340;SDS011;9296;48.084;16.352;2024-02-26T17:18:27;1.92;;;1.33;;
18340;SDS011;9296;48.084;16.352;2024-02-26T17:20:55;1.88;;;1.30;;
18340;SDS011;9296;48.084;16.352;2024-02-26T17:23:40;3.35;;;1.80;;
18340;SDS011;9296;48.084;16.352;2024-02-26T17:26:21;2.85;;;1.50;;
18340;SDS011;9296;48.084;16.352;2024-02-26T17:28:52;3.00;;;1.55;;
18340;SDS011;9296;48.084;16.352;2024-02-26T17:31:36;3.80;;;1.70;;
18340;SDS011;9296;48.084;16.352;2024-02-26T17:36:49;2.30;;;1.50;;
18340;SDS011;9296;48.084;16.352;2024-02-26T17:39:20;2.67;;;1.42;;
18340;SDS011;9296;48.084;16.352;2024-02-26T17:41:47;3.30;;;1.58;;
18340;SDS011;9296;48.084;16.352;2024-02-26T17:44:17;4.57;;;1.50;;
18340;SDS011;9296;48.084;16.352;2024-02-26T17:46:47;2.25;;;1.38;;
18340;SDS011;9296;48.084;16.352;2024-02-26T17:49:18;2.33;;;1.27;;
18340;SDS011;9296;48.084;16.352;2024-02-26T17:51:57;1.98;;;1.40;;
18340;SDS011;9296;48.084;16.352;2024-02-26T17:54:28;1.98;;;1.30;;
18340;SDS011;9296;48.084;16.352;2024-02-26T17:56:55;4.60;;;1.25;;
18340;SDS011;9296;48.084;16.352;2024-02-26T17:59:24;4.80;;;1.33;;
18340;SDS011;9296;48.084;16.352;2024-02-26T18:02:11;1.85;;;1.23;;
18340;SDS011;9296;48.084;16.352;2024-02-26T18:04:38;3.15;;;1.40;;
18340;SDS011;9296;48.084;16.352;2024-02-26T18:09:39;1.77;;;1.25;;
18340;SDS011;9296;48.084;16.352;2024-02-26T18:12:17;1.73;;;1.20;;
18340;SDS011;9296;48.084;16.352;2024-02-26T18:14:45;1.60;;;1.13;;
18340;SDS011;9296;48.084;16.352;2024-02-26T18:17:13;2.85;;;1.25;;
18340;SDS011;9296;48.084;16.352;2024-02-26T18:19:51;2.08;;;1.02;;
18340;SDS011;9296;48.084;16.352;2024-02-26T18:22:18;1.92;;;1.35;;
18340;SDS011;9296;48.084;16.352;2024-02-26T18:27:30;2.60;;;1.48;;
18340;SDS011;9296;48.084;16.352;2024-02-26T18:30:00;1.73;;;1.30;;
18340;SDS011;9296;48.084;16.352;2024-02-26T18:32:27;1.60;;;1.23;;
18340;SDS011;9296;48.084;16.352;2024-02-26T18:34:55;2.08;;;1.10;;
18340;SDS011;9296;48.084;16.352;2024-02-26T18:37:30;2.10;;;1.08;;
18340;SDS011;9296;48.084;16.352;2024-02-26T18:39:58;1.48;;;1.00;;
18340;SDS011;9296;48.084;16.352;2024-02-26T18:42:32;2.42;;;1.40;;
18340;SDS011;9296;48.084;16.352;2024-02-26T18:45:02;1.55;;;1.10;;
18340;SDS011;9296;48.084;16.352;2024-02-26T18:47:30;3.08;;;1.63;;
18340;SDS011;9296;48.084;16.352;2024-02-26T18:49:57;1.85;;;1.40;;
18340;SDS011;9296;48.084;16.352;2024-02-26T18:52:25;1.63;;;1.10;;
18340;SDS011;9296;48.084;16.352;2024-02-26T18:54:52;2.47;;;1.17;;
18340;SDS011;9296;48.084;16.352;2024-02-26T18:57:21;1.75;;;1.40;;
18340;SDS011;9296;48.084;16.352;2024-02-26T18:59:58;3.33;;;1.50;;
18340;SDS011;9296;48.084;16.352;2024-02-26T19:02:25;4.50;;;1.83;;
18340;SDS011;9296;48.084;16.352;2024-02-26T19:05:04;3.40;;;1.80;;
18340;SDS011;9296;48.084;16.352;2024-02-26T19:07:31;2.92;;;2.30;;
18340;SDS011;9296;48.084;16.352;2024-02-26T19:09:58;2.90;;;1.92;;
18340;SDS011;9296;48.084;16.352;2024-02-26T19:12:58;2.42;;;1.80;;
18340;SDS011;9296;48.084;16.352;2024-02-26T19:15:28;2.05;;;1.70;;
18340;SDS011;9296;48.084;16.352;2024-02-26T19:17:56;3.78;;;1.88;;
18340;SDS011;9296;48.084;16.352;2024-02-26T19:20:29;3.92;;;1.98;;
18340;SDS011;9296;48.084;16.352;2024-02-26T19:25:55;3.05;;;1.65;;
18340;SDS011;9296;48.084;16.352;2024-02-26T20:17:44;3.33;;;1.70;;
18340;SDS011;9296;48.084;16.352;2024-02-26T20:20:40;3.38;;;1.75;;
18340;SDS011;9296;48.084;16.352;2024-02-26T20:23:51;2.67;;;1.90;;
18340;SDS011;9296;48.084;16.352;2024-02-26T20:40:14;2.65;;;1.50;;
18340;SDS011;9296;48.084;16.352;2024-02-26T20:42:48;2.80;;;1.65;;
18340;SDS011;9296;48.084;16.352;2024-02-26T20:47:46;2.80;;;1.75;;
18340;SDS011;9296;48.084;16.352;2024-02-26T20:50:19;3.45;;;1.67;;
18340;SDS011;9296;48.084;16.352;2024-02-26T20:52:46;4.68;;;1.80;;
18340;SDS011;9296;48.084;16.352;2024-02-26T20:55:24;2.15;;;1.38;;
18340;SDS011;9296;48.084;16.352;2024-02-26T20:57:51;3.58;;;2.03;;
18340;SDS011;9296;48.084;16.352;2024-02-26T21:00:20;4.13;;;1.70;;
18340;SDS011;9296;48.084;16.352;2024-02-26T21:02:47;3.25;;;1.70;;
18340;SDS011;9296;48.084;16.352;2024-02-26T21:05:15;3.42;;;1.90;;
18340;SDS011;9296;48.084;16.352;2024-02-26T21:07:42;3.40;;;1.80;;
18340;SDS011;9296;48.084;16.352;2024-02-26T21:10:10;2.10;;;1.42;;
18340;SDS011;9296;48.084;16.352;2024-02-26T21:12:55;2.20;;;1.75;;
18340;SDS011;9296;48.084;16.352;2024-02-26T21:15:45;2.70;;;1.65;;
18340;SDS011;9296;48.084;16.352;2024-02-26T21:18:34;3.42;;;2.00;;
18340;SDS011;9296;48.084;16.352;2024-02-26T21:21:04;3.65;;;1.90;;
18340;SDS011;9296;48.084;16.352;2024-02-26T21:23:51;3.38;;;1.92;;
18340;SDS011;9296;48.084;16.352;2024-02-26T21:34:28;2.92;;;1.80;;
18340;SDS011;9296;48.084;16.352;2024-02-26T21:37:15;4.05;;;1.90;;
18340;SDS011;9296;48.084;16.352;2024-02-26T21:39:54;5.05;;;1.90;;
18340;SDS011;9296;48.084;16.352;2024-02-26T21:45:26;2.92;;;1.85;;
18340;SDS011;9296;48.084;16.352;2024-02-26T21:47:55;3.38;;;1.83;;
18340;SDS011;9296;48.084;16.352;2024-02-26T21:50:25;5.00;;;2.33;;
18340;SDS011;9296;48.084;16.352;2024-02-26T21:52:53;3.85;;;2.30;;
18340;SDS011;9296;48.084;16.352;2024-02-26T21:55:28;4.00;;;2.22;;
18340;SDS011;9296;48.084;16.352;2024-02-26T22:00:35;4.40;;;2.10;;
18340;SDS011;9296;48.084;16.352;2024-02-26T22:03:04;4.05;;;2.25;;
18340;SDS011;9296;48.084;16.352;2024-02-26T22:05:33;6.22;;;2.20;;
18340;SDS011;9296;48.084;16.352;2024-02-26T22:08:00;3.22;;;2.13;;
18340;SDS011;9296;48.084;16.352;2024-02-26T22:10:27;5.85;;;2.53;;
18340;SDS011;9296;48.084;16.352;2024-02-26T22:12:55;4.30;;;3.05;;
18340;SDS011;9296;48.084;16.352;2024-02-26T22:15:23;3.70;;;2.70;;
18340;SDS011;9296;48.084;16.352;2024-02-26T22:17:53;3.50;;;2.20;;
18340;SDS011;9296;48.084;16.352;2024-02-26T22:20:27;4.28;;;2.30;;
18340;SDS011;9296;48.084;16.352;2024-02-26T22:25:42;3.05;;;2.10;;
18340;SDS011;9296;48.084;16.352;2024-02-26T22:28:10;2.83;;;1.90;;
18340;SDS011;9296;48.084;16.352;2024-02-26T22:30:37;2.97;;;1.80;;
18340;SDS011;9296;48.084;16.352;2024-02-26T22:33:05;3.45;;;2.00;;
18340;SDS011;9296;48.084;16.352;2024-02-26T22:35:38;2.60;;;1.80;;
18340;SDS011;9296;48.084;16.352;2024-02-26T22:40:36;2.72;;;1.80;;
18340;SDS011;9296;48.084;16.352;2024-02-26T22:45:47;3.67;;;1.88;;
18340;SDS011;9296;48.084;16.352;2024-02-26T22:48:41;2.90;;;1.50;;
18340;SDS011;9296;48.084;16.352;2024-02-26T22:51:08;4.05;;;1.98;;
18340;SDS011;9296;48.084;16.352;2024-02-26T22:53:38;2.58;;;1.58;;
18340;SDS011;9296;48.084;16.352;2024-02-26T22:56:07;2.13;;;1.52;;
18340;SDS011;9296;48.084;16.352;2024-02-26T22:58:34;3.90;;;1.50;;
18340;SDS011;9296;48.084;16.352;2024-02-26T23:01:03;2.20;;;1.50;;
18340;SDS011;9296;48.084;16.352;2024-02-26T23:03:32;2.50;;;1.45;;
18340;SDS011;9296;48.084;16.352;2024-02-26T23:05:59;2.05;;;1.48;;
18340;SDS011;9296;48.084;16.352;2024-02-26T23:08:41;2.17;;;1.35;;
18340;SDS011;9296;48.084;16.352;2024-02-26T23:13:41;4.43;;;1.67;;
18340;SDS011;9296;48.084;16.352;2024-02-26T23:16:12;3.10;;;1.58;;
18340;SDS011;9296;48.084;16.352;2024-02-26T23:18:45;2.83;;;1.60;;
18340;SDS011;9296;48.084;16.352;2024-02-26T23:21:13;2.83;;;1.65;;
18340;SDS011;9296;48.084;16.352;2024-02-26T23:23:46;2.60;;;1.38;;
18340;SDS011;9296;48.084;16.352;2024-02-26T23:26:15;1.70;;;1.40;;
18340;SDS011;9296;48.084;16.352;2024-02-26T23:32:14;2.15;;;1.55;;
18340;SDS011;9296;48.084;16.352;2024-02-26T23:34:42;2.92;;;1.67;;
18340;SDS011;9296;48.084;16.352;2024-02-26T23:37:09;2.05;;;1.50;;
18340;SDS011;9296;48.084;16.352;2024-02-26T23:39:43;2.38;;;1.42;;
18340;SDS011;9296;48.084;16.352;2024-02-26T23:47:52;2.70;;;1.52;;
18340;SDS011;9296;48.084;16.352;2024-02-26T23:50:20;2.30;;;1.58;;
18340;SDS011;9296;48.084;16.352;2024-02-26T23:52:48;2.25;;;1.70;;
18340;SDS011;9296;48.084;16.352;2024-02-26T23:55:16;3.72;;;1.60;;
18340;SDS011;9296;48.084;16.352;2024-02-26T23:57:59;2.65;;;1.70;;
